Time;durP1;ratioP1;P1;durP2;ratioP2;P2;SDS_P1;SDS_P2;PMS_P1;PMS_P2;Temp;Humidity;BMP_temperature;BMP_pressure;BME280_temperature;BME280_humidity;BME280_pressure;Samples;Min_cycle;Max_cycle;Signal;HPM_P1;HPM_P2
2022/09/24 00:02:10;;;;;;;11.07;10.13;;;;;;;;;;5015527;28;92329;-60
2022/09/24 00:04:36;;;;;;;10.85;9.93;;;;;;;;;;5015734;28;94025;-60
2022/09/24 00:07:03;;;;;;;11.70;10.35;;;;;;;;;;5016182;28;92458;-60
2022/09/24 00:09:29;;;;;;;10.55;9.65;;;;;;;;;;5014797;28;93936;-60
2022/09/24 00:11:55;;;;;;;10.48;9.50;;;;;;;;;;5014641;28;93173;-60
2022/09/24 00:14:21;;;;;;;11.88;10.88;;;;;;;;;;5018632;28;92487;-60
2022/09/24 00:16:48;;;;;;;10.82;9.93;;;;;;;;;;5019820;28;95774;-60
2022/09/24 00:19:15;;;;;;;12.30;11.18;;;;;;;;;;5036494;27;92518;-60
2022/09/24 00:21:41;;;;;;;11.70;10.63;;;;;;;;;;5032033;28;93843;-60
2022/09/24 00:27:02;;;;;;;11.63;10.60;;;;;;;;;;5014483;28;92488;-60
2022/09/24 00:29:32;;;;;;;10.70;9.80;;;;;;;;;;5013221;28;93167;-60
2022/09/24 00:31:59;;;;;;;10.93;9.93;;;;;;;;;;5015605;28;94269;-60
2022/09/24 00:34:25;;;;;;;11.98;10.77;;;;;;;;;;5028160;28;91714;-60
2022/09/24 00:36:52;;;;;;;10.95;10.07;;;;;;;;;;5037327;28;92479;-60
2022/09/24 00:39:18;;;;;;;11.10;10.00;;;;;;;;;;5035057;28;92355;-61
2022/09/24 00:41:46;;;;;;;11.02;10.02;;;;;;;;;;5013227;28;94933;-60
2022/09/24 00:44:31;;;;;;;11.55;10.55;;;;;;;;;;5013412;28;93365;-60
2022/09/24 00:46:58;;;;;;;11.00;10.10;;;;;;;;;;5014723;28;92361;-60
2022/09/24 00:49:24;;;;;;;11.60;10.60;;;;;;;;;;5014775;28;92881;-60
2022/09/24 00:51:51;;;;;;;10.85;9.88;;;;;;;;;;5029055;28;93254;-60
2022/09/24 00:54:21;;;;;;;11.13;10.10;;;;;;;;;;5035517;28;92374;-60
2022/09/24 00:56:48;;;;;;;10.07;9.18;;;;;;;;;;5034166;28;94013;-61
2022/09/24 00:59:16;;;;;;;10.65;9.65;;;;;;;;;;5038443;28;93654;-61
2022/09/24 01:01:44;;;;;;;10.82;9.75;;;;;;;;;;5036174;28;93310;-60
2022/09/24 01:04:11;;;;;;;10.07;9.23;;;;;;;;;;5031669;28;94176;-60
2022/09/24 01:06:38;;;;;;;9.80;8.90;;;;;;;;;;5013797;28;95069;-60
2022/09/24 01:09:04;;;;;;;10.07;9.13;;;;;;;;;;5015550;28;95627;-61
2022/09/24 01:11:45;;;;;;;11.60;9.10;;;;;;;;;;5014564;28;93185;-61
2022/09/24 01:14:26;;;;;;;10.00;9.25;;;;;;;;;;5014683;28;92527;-60
2022/09/24 01:17:12;;;;;;;10.35;9.27;;;;;;;;;;5013081;28;93835;-60
2022/09/24 01:19:53;;;;;;;8.95;8.15;;;;;;;;;;4994430;28;93321;-61
2022/09/24 01:22:31;;;;;;;8.98;8.18;;;;;;;;;;5016881;28;92436;-61
2022/09/24 01:25:01;;;;;;;9.57;8.68;;;;;;;;;;5026244;27;92713;-60
2022/09/24 01:27:33;;;;;;;9.85;9.05;;;;;;;;;;5015170;28;92841;-60
2022/09/24 01:30:02;;;;;;;9.73;8.80;;;;;;;;;;5015071;28;93150;-60
2022/09/24 01:32:48;;;;;;;9.55;8.75;;;;;;;;;;5012623;28;95662;-60
2022/09/24 01:35:23;;;;;;;9.27;8.50;;;;;;;;;;5030356;28;92479;-61
2022/09/24 01:37:54;;;;;;;9.45;8.55;;;;;;;;;;5034837;27;93146;-61
2022/09/24 01:40:23;;;;;;;9.60;8.80;;;;;;;;;;5022824;27;92609;-61
2022/09/24 01:42:50;;;;;;;8.98;8.15;;;;;;;;;;5015403;28;92413;-61
2022/09/24 01:45:17;;;;;;;8.90;8.20;;;;;;;;;;5017595;28;92940;-61
2022/09/24 01:47:44;;;;;;;9.20;8.38;;;;;;;;;;5014351;28;92438;-61
2022/09/24 01:50:12;;;;;;;8.68;7.88;;;;;;;;;;5003165;28;93933;-60
2022/09/24 01:52:52;;;;;;;8.73;8.02;;;;;;;;;;4994960;28;94125;-60
2022/09/24 01:55:20;;;;;;;8.98;8.27;;;;;;;;;;4994767;28;92413;-60
2022/09/24 01:57:49;;;;;;;9.18;8.18;;;;;;;;;;4993756;28;94823;-61
2022/09/24 02:00:20;;;;;;;8.63;7.82;;;;;;;;;;5013311;28;93240;-60
2022/09/24 02:02:49;;;;;;;8.50;7.90;;;;;;;;;;5014977;28;93498;-60
2022/09/24 02:05:18;;;;;;;8.77;8.07;;;;;;;;;;5017605;28;93207;-60
2022/09/24 02:07:51;;;;;;;8.38;7.78;;;;;;;;;;5014049;28;92405;-61
2022/09/24 02:10:19;;;;;;;8.43;7.80;;;;;;;;;;5013808;28;92522;-60
2022/09/24 02:12:51;;;;;;;9.15;8.55;;;;;;;;;;5014888;28;93399;-61
2022/09/24 02:15:20;;;;;;;9.18;8.45;;;;;;;;;;5014917;28;92132;-61
2022/09/24 02:17:50;;;;;;;9.45;8.65;;;;;;;;;;5014540;28;92334;-60
2022/09/24 02:20:20;;;;;;;9.63;8.77;;;;;;;;;;5014347;28;93545;-61
2022/09/24 02:22:47;;;;;;;9.10;8.30;;;;;;;;;;5011485;28;95060;-61
2022/09/24 02:25:17;;;;;;;9.57;8.80;;;;;;;;;;5014541;28;94058;-61
2022/09/24 02:27:43;;;;;;;9.07;8.38;;;;;;;;;;5017479;28;93443;-61
2022/09/24 02:30:10;;;;;;;9.25;8.50;;;;;;;;;;5013627;28;92309;-61
2022/09/24 02:32:39;;;;;;;9.02;8.32;;;;;;;;;;5014971;28;93486;-61
2022/09/24 02:35:07;;;;;;;8.93;8.32;;;;;;;;;;5014205;28;93016;-61
2022/09/24 02:37:34;;;;;;;9.30;8.60;;;;;;;;;;5017952;28;93127;-60
2022/09/24 02:40:02;;;;;;;9.45;8.57;;;;;;;;;;5006825;28;93230;-61
2022/09/24 02:42:30;;;;;;;9.45;8.75;;;;;;;;;;5016400;28;92459;-60
2022/09/24 02:44:58;;;;;;;9.52;8.82;;;;;;;;;;5017541;28;93110;-61
2022/09/24 02:47:25;;;;;;;9.93;9.02;;;;;;;;;;5015597;28;95687;-61
2022/09/24 02:49:51;;;;;;;9.40;8.65;;;;;;;;;;5020346;28;92413;-61
2022/09/24 02:52:17;;;;;;;9.52;8.65;;;;;;;;;;5017103;28;93367;-60
2022/09/24 02:54:44;;;;;;;9.80;8.90;;;;;;;;;;5018017;28;92528;-61
2022/09/24 02:57:10;;;;;;;10.45;9.45;;;;;;;;;;5016858;28;93071;-61
2022/09/24 02:59:36;;;;;;;9.75;9.05;;;;;;;;;;5016817;28;94183;-61
2022/09/24 03:02:03;;;;;;;10.30;9.50;;;;;;;;;;5017197;28;92360;-61
2022/09/24 03:04:30;;;;;;;10.05;9.25;;;;;;;;;;5016711;28;92983;-61
2022/09/24 03:06:57;;;;;;;10.38;9.48;;;;;;;;;;5017400;28;92315;-61
2022/09/24 03:09:23;;;;;;;10.60;9.73;;;;;;;;;;5016816;28;94023;-61
2022/09/24 03:11:49;;;;;;;10.70;9.70;;;;;;;;;;5017691;28;94846;-61
2022/09/24 03:14:15;;;;;;;10.73;9.88;;;;;;;;;;5017047;28;92538;-61
2022/09/24 03:16:42;;;;;;;10.20;9.40;;;;;;;;;;5016956;28;93013;-60
2022/09/24 03:19:08;;;;;;;10.57;9.57;;;;;;;;;;5015982;28;93259;-61
2022/09/24 03:21:34;;;;;;;11.13;10.27;;;;;;;;;;5017189;28;92470;-61
2022/09/24 03:24:02;;;;;;;10.48;9.68;;;;;;;;;;5016367;28;93107;-61
2022/09/24 03:26:28;;;;;;;10.15;9.25;;;;;;;;;;5014213;28;93604;-61
2022/09/24 03:28:55;;;;;;;10.85;9.88;;;;;;;;;;5017561;28;91675;-61
2022/09/24 03:31:23;;;;;;;10.45;9.63;;;;;;;;;;5015885;28;92329;-61
2022/09/24 03:33:49;;;;;;;11.38;10.35;;;;;;;;;;5019911;28;93776;-60
2022/09/24 03:36:23;;;;;;;11.43;10.40;;;;;;;;;;5014023;28;94845;-60
2022/09/24 03:38:50;;;;;;;11.30;10.40;;;;;;;;;;5015371;28;94184;-61
2022/09/24 03:41:16;;;;;;;11.30;10.30;;;;;;;;;;5026431;28;92458;-60
2022/09/24 03:43:43;;;;;;;11.73;10.63;;;;;;;;;;5036093;28;93045;-61
2022/09/24 03:46:10;;;;;;;11.65;10.45;;;;;;;;;;5034510;27;93252;-61
2022/09/24 03:48:37;;;;;;;10.98;9.98;;;;;;;;;;5036143;27;92462;-60
2022/09/24 03:51:05;;;;;;;10.70;9.82;;;;;;;;;;5018570;28;93965;-60
2022/09/24 03:53:31;;;;;;;11.20;10.18;;;;;;;;;;5015941;28;92809;-60
2022/09/24 03:55:58;;;;;;;11.38;10.40;;;;;;;;;;5018266;28;92514;-60
2022/09/24 03:58:25;;;;;;;12.07;10.93;;;;;;;;;;5016222;28;93386;-60
2022/09/24 04:00:52;;;;;;;12.25;11.20;;;;;;;;;;5012975;28;94880;-60
2022/09/24 04:03:20;;;;;;;11.88;10.88;;;;;;;;;;5015804;28;95415;-60
2022/09/24 04:05:46;;;;;;;11.45;10.55;;;;;;;;;;5015661;28;94313;-61
2022/09/24 04:08:13;;;;;;;10.98;10.05;;;;;;;;;;5014768;28;92845;-60
2022/09/24 04:10:39;;;;;;;11.70;10.65;;;;;;;;;;5015963;28;93003;-60
2022/09/24 04:13:05;;;;;;;11.80;10.80;;;;;;;;;;5014961;28;93441;-61
2022/09/24 04:15:32;;;;;;;12.07;10.95;;;;;;;;;;5018411;28;92641;-61
2022/09/24 04:17:58;;;;;;;12.40;11.30;;;;;;;;;;5015662;28;93129;-60
2022/09/24 04:20:26;;;;;;;11.80;10.77;;;;;;;;;;5016420;27;92321;-60
2022/09/24 04:22:53;;;;;;;10.85;9.95;;;;;;;;;;5014889;28;93240;-61
2022/09/24 04:25:20;;;;;;;12.13;11.02;;;;;;;;;;5013578;28;95956;-60
2022/09/24 04:27:51;;;;;;;11.98;10.98;;;;;;;;;;5014663;28;92543;-60
2022/09/24 04:30:17;;;;;;;11.40;10.55;;;;;;;;;;5015857;27;93084;-60
2022/09/24 04:32:44;;;;;;;11.70;10.60;;;;;;;;;;5015729;28;93279;-61
2022/09/24 04:35:10;;;;;;;11.57;10.60;;;;;;;;;;5014248;28;92522;-61
2022/09/24 04:37:36;;;;;;;12.23;11.13;;;;;;;;;;5017865;28;93117;-61
2022/09/24 04:40:04;;;;;;;11.77;10.57;;;;;;;;;;5015009;28;92467;-61
2022/09/24 04:42:30;;;;;;;12.27;11.18;;;;;;;;;;5015004;28;92831;-60
2022/09/24 04:44:56;;;;;;;11.65;10.65;;;;;;;;;;5015081;28;93398;-61
2022/09/24 04:47:24;;;;;;;11.68;10.73;;;;;;;;;;4996106;28;92435;-60
2022/09/24 04:49:51;;;;;;;11.98;10.95;;;;;;;;;;5009503;28;95429;-60
2022/09/24 04:52:17;;;;;;;11.18;10.18;;;;;;;;;;5012542;28;93151;-61
2022/09/24 04:54:45;;;;;;;11.30;10.38;;;;;;;;;;5012050;28;92740;-61
2022/09/24 04:57:12;;;;;;;12.27;11.25;;;;;;;;;;5012133;28;92915;-61
2022/09/24 04:59:39;;;;;;;11.65;10.70;;;;;;;;;;5017105;28;93105;-61
2022/09/24 05:02:08;;;;;;;12.05;10.90;;;;;;;;;;5013822;28;93118;-60
2022/09/24 05:04:35;;;;;;;11.98;10.88;;;;;;;;;;5012824;28;93360;-61
2022/09/24 05:07:02;;;;;;;11.32;10.32;;;;;;;;;;5002627;28;92033;-60
2022/09/24 05:09:30;;;;;;;12.35;11.27;;;;;;;;;;4994564;28;92430;-60
2022/09/24 05:11:57;;;;;;;10.90;10.10;;;;;;;;;;5010139;28;93356;-60
2022/09/24 05:14:24;;;;;;;11.68;10.77;;;;;;;;;;4994469;28;94840;-60
2022/09/24 05:16:51;;;;;;;11.95;10.90;;;;;;;;;;4994020;28;95158;-58
2022/09/24 05:19:17;;;;;;;11.27;10.38;;;;;;;;;;4994191;28;93421;-60
2022/09/24 05:21:43;;;;;;;11.68;10.68;;;;;;;;;;4997477;28;92474;-60
2022/09/24 05:24:09;;;;;;;11.90;10.80;;;;;;;;;;5012886;28;93125;-61
2022/09/24 05:29:21;;;;;;;11.50;10.40;;;;;;;;;;4994177;28;94459;-61
2022/09/24 05:31:47;;;;;;;12.27;11.27;;;;;;;;;;4994209;28;92544;-60
2022/09/24 05:34:13;;;;;;;10.82;9.90;;;;;;;;;;4994091;28;92861;-60
2022/09/24 05:36:42;;;;;;;11.38;10.45;;;;;;;;;;4995040;28;93891;-60
2022/09/24 05:39:10;;;;;;;11.15;10.25;;;;;;;;;;4993887;28;94872;-61
2022/09/24 05:41:37;;;;;;;11.30;10.32;;;;;;;;;;5013756;28;93216;-60
2022/09/24 05:44:03;;;;;;;11.60;10.63;;;;;;;;;;5016848;28;93188;-61
2022/09/24 05:46:30;;;;;;;10.80;9.93;;;;;;;;;;5013562;28;92439;-60
2022/09/24 05:48:56;;;;;;;11.10;10.05;;;;;;;;;;5014929;28;92874;-60
2022/09/24 05:51:22;;;;;;;11.35;10.43;;;;;;;;;;5013866;28;93396;-60
2022/09/24 05:53:49;;;;;;;11.77;10.68;;;;;;;;;;5013300;28;92301;-61
2022/09/24 05:56:15;;;;;;;11.80;10.70;;;;;;;;;;4997227;28;93274;-60
2022/09/24 05:58:42;;;;;;;10.57;9.68;;;;;;;;;;5014078;28;93178;-62
2022/09/24 06:01:08;;;;;;;11.63;10.55;;;;;;;;;;5012956;28;92405;-62
2022/09/24 06:03:34;;;;;;;10.93;10.02;;;;;;;;;;5012309;28;94822;-61
2022/09/24 06:06:01;;;;;;;11.15;10.15;;;;;;;;;;5036059;27;93606;-61
2022/09/24 06:08:28;;;;;;;10.68;9.68;;;;;;;;;;5009079;27;93691;-61
2022/09/24 06:11:02;;;;;;;10.88;9.95;;;;;;;;;;4996873;28;95664;-62
2022/09/24 06:13:30;;;;;;;10.90;10.00;;;;;;;;;;5014202;28;92474;-61
2022/09/24 06:16:00;;;;;;;11.30;10.32;;;;;;;;;;5016729;28;92517;-61
2022/09/24 06:18:27;;;;;;;10.45;9.57;;;;;;;;;;5012309;28;93074;-62
2022/09/24 06:20:54;;;;;;;10.25;9.40;;;;;;;;;;5002798;28;92567;-60
2022/09/24 06:23:20;;;;;;;11.68;10.57;;;;;;;;;;4996604;28;94332;-60
2022/09/24 06:25:50;;;;;;;10.20;9.30;;;;;;;;;;4988859;28;95737;-61
2022/09/24 06:28:16;;;;;;;10.35;9.45;;;;;;;;;;5021998;28;94880;-61
2022/09/24 06:30:43;;;;;;;10.32;9.50;;;;;;;;;;5031635;28;94255;-61
2022/09/24 06:33:11;;;;;;;10.43;9.63;;;;;;;;;;5031340;28;92467;-61
2022/09/24 06:35:38;;;;;;;10.07;9.18;;;;;;;;;;5036947;27;92961;-61
2022/09/24 06:38:05;;;;;;;10.90;9.98;;;;;;;;;;5024762;27;93021;-61
2022/09/24 06:40:32;;;;;;;10.35;9.55;;;;;;;;;;5004878;28;93257;-61
2022/09/24 06:43:02;;;;;;;9.90;9.02;;;;;;;;;;5000246;28;94662;-61
2022/09/24 06:45:29;;;;;;;10.18;9.18;;;;;;;;;;5003950;28;92578;-61
2022/09/24 06:47:56;;;;;;;9.40;8.70;;;;;;;;;;5004033;28;92510;-61
2022/09/24 06:50:24;;;;;;;10.02;9.20;;;;;;;;;;5012667;28;93400;-61
2022/09/24 06:52:51;;;;;;;9.35;8.65;;;;;;;;;;5001684;28;96858;-61
2022/09/24 06:55:18;;;;;;;9.88;9.07;;;;;;;;;;5004746;28;95651;-61
2022/09/24 06:57:44;;;;;;;10.27;9.38;;;;;;;;;;5006679;28;93226;-60
2022/09/24 07:00:11;;;;;;;9.98;9.07;;;;;;;;;;5004687;28;95988;-61
2022/09/24 07:02:38;;;;;;;9.43;8.57;;;;;;;;;;5006462;28;93050;-61
2022/09/24 07:05:05;;;;;;;9.75;8.95;;;;;;;;;;5007416;28;93232;-61
2022/09/24 07:07:33;;;;;;;10.00;9.20;;;;;;;;;;5004510;28;94599;-60
2022/09/24 07:10:00;;;;;;;9.65;8.75;;;;;;;;;;5005679;28;93050;-60
2022/09/24 07:12:28;;;;;;;10.60;9.60;;;;;;;;;;4997990;28;92640;-61
2022/09/24 07:14:55;;;;;;;9.43;8.68;;;;;;;;;;5014151;28;92882;-61
2022/09/24 07:17:21;;;;;;;9.70;8.82;;;;;;;;;;5014725;28;95816;-61
2022/09/24 07:19:48;;;;;;;8.98;8.38;;;;;;;;;;5017126;28;92378;-61
2022/09/24 07:22:14;;;;;;;10.32;9.52;;;;;;;;;;5002946;28;93202;-61
2022/09/24 07:24:41;;;;;;;8.90;8.20;;;;;;;;;;5000298;28;93426;-60
2022/09/24 07:27:07;;;;;;;8.88;8.10;;;;;;;;;;4997082;28;92738;-61
2022/09/24 07:29:34;;;;;;;9.65;8.85;;;;;;;;;;4997749;28;93099;-61
2022/09/24 07:32:01;;;;;;;9.65;8.65;;;;;;;;;;5014730;28;94715;-60
2022/09/24 07:34:27;;;;;;;9.70;8.85;;;;;;;;;;5014195;28;92420;-61
2022/09/24 07:36:54;;;;;;;9.25;8.45;;;;;;;;;;4996236;28;94096;-61
2022/09/24 07:39:22;;;;;;;9.27;8.50;;;;;;;;;;4995528;28;92721;-61
2022/09/24 07:41:51;;;;;;;9.02;8.32;;;;;;;;;;5004401;28;96646;-60
2022/09/24 07:44:21;;;;;;;9.27;8.38;;;;;;;;;;5016013;28;93342;-61
2022/09/24 07:46:49;;;;;;;8.80;8.00;;;;;;;;;;5016111;28;93006;-61
2022/09/24 07:49:15;;;;;;;8.73;8.13;;;;;;;;;;4996258;28;93264;-61
2022/09/24 07:51:42;;;;;;;8.88;8.10;;;;;;;;;;4995986;28;92297;-60
2022/09/24 07:54:09;;;;;;;9.40;8.70;;;;;;;;;;5001276;28;92472;-60
2022/09/24 07:56:42;;;;;;;9.07;8.32;;;;;;;;;;4996246;28;93165;-61
2022/09/24 07:59:10;;;;;;;8.43;7.63;;;;;;;;;;4995597;28;92311;-61
2022/09/24 08:01:36;;;;;;;9.43;8.30;;;;;;;;;;5016611;28;92441;-61
2022/09/24 08:04:03;;;;;;;8.85;8.05;;;;;;;;;;5016156;28;93338;-61
2022/09/24 08:06:33;;;;;;;8.32;7.53;;;;;;;;;;5009390;28;95842;-60
2022/09/24 08:09:04;;;;;;;8.25;7.65;;;;;;;;;;4999259;28;95453;-60
2022/09/24 08:11:32;;;;;;;8.35;7.80;;;;;;;;;;5003405;28;93432;-60
2022/09/24 08:14:00;;;;;;;8.77;7.97;;;;;;;;;;4997954;28;92433;-60
2022/09/24 08:16:27;;;;;;;8.73;8.00;;;;;;;;;;4999126;28;92812;-61
2022/09/24 08:18:54;;;;;;;9.23;7.35;;;;;;;;;;4995455;28;92515;-61
2022/09/24 08:21:20;;;;;;;7.18;6.63;;;;;;;;;;4995718;28;93923;-61
2022/09/24 08:23:47;;;;;;;7.63;7.03;;;;;;;;;;4996785;28;92421;-61
2022/09/24 08:26:14;;;;;;;8.05;7.47;;;;;;;;;;4995694;28;92367;-61
2022/09/24 08:28:43;;;;;;;8.05;7.35;;;;;;;;;;4995325;28;92759;-61
2022/09/24 08:31:11;;;;;;;10.68;8.90;;;;;;;;;;4993334;28;95781;-63
2022/09/24 08:33:38;;;;;;;8.15;7.47;;;;;;;;;;4995113;28;92351;-59
2022/09/24 08:36:06;;;;;;;9.40;7.35;;;;;;;;;;4998119;28;93102;-60
2022/09/24 08:38:32;;;;;;;9.30;7.40;;;;;;;;;;4994847;28;92540;-60
2022/09/24 08:41:02;;;;;;;7.57;7.00;;;;;;;;;;4994883;28;92905;-60
2022/09/24 08:43:43;;;;;;;6.90;6.40;;;;;;;;;;4996907;28;93794;-60
2022/09/24 08:49:02;;;;;;;7.13;6.63;;;;;;;;;;5000435;28;92965;-61
2022/09/24 08:51:35;;;;;;;7.35;6.75;;;;;;;;;;4999536;28;93360;-60
2022/09/24 08:54:04;;;;;;;7.35;6.75;;;;;;;;;;5001333;28;92585;-60
2022/09/24 08:56:34;;;;;;;7.55;6.95;;;;;;;;;;5005530;28;96089;-60
2022/09/24 08:59:21;;;;;;;7.22;6.63;;;;;;;;;;4996571;28;93130;-61
2022/09/24 09:02:07;;;;;;;7.40;6.85;;;;;;;;;;4994790;28;93391;-60
2022/09/24 09:04:33;;;;;;;7.05;6.63;;;;;;;;;;5011162;28;93258;-60
2022/09/24 09:07:07;;;;;;;8.02;7.43;;;;;;;;;;5005347;28;92603;-60
2022/09/24 09:09:41;;;;;;;7.70;7.10;;;;;;;;;;5014103;28;93998;-60
2022/09/24 09:12:16;;;;;;;8.32;7.10;;;;;;;;;;5011680;28;93322;-60
2022/09/24 09:15:02;;;;;;;7.72;7.13;;;;;;;;;;4999672;27;92967;-60
2022/09/24 09:17:31;;;;;;;7.75;7.15;;;;;;;;;;4998200;28;93265;-60
2022/09/24 09:20:00;;;;;;;6.93;6.43;;;;;;;;;;5013282;28;94407;-60
2022/09/24 09:22:29;;;;;;;7.38;6.80;;;;;;;;;;4996445;28;94827;-60
2022/09/24 09:24:59;;;;;;;8.05;7.32;;;;;;;;;;4999987;28;93343;-61
2022/09/24 09:27:29;;;;;;;7.68;7.07;;;;;;;;;;4994887;28;92319;-61
2022/09/24 09:29:56;;;;;;;10.07;7.05;;;;;;;;;;5006138;28;93803;-60
2022/09/24 09:32:32;;;;;;;7.65;7.10;;;;;;;;;;5013009;28;93727;-61
2022/09/24 09:35:10;;;;;;;7.55;7.05;;;;;;;;;;4997712;28;92525;-61
2022/09/24 09:37:44;;;;;;;7.15;6.55;;;;;;;;;;5006733;28;96204;-60
2022/09/24 09:40:25;;;;;;;7.47;6.90;;;;;;;;;;5004651;28;93577;-60
2022/09/24 09:42:58;;;;;;;7.88;7.13;;;;;;;;;;4994499;28;92897;-60
2022/09/24 09:45:43;;;;;;;7.68;7.18;;;;;;;;;;4998806;28;93134;-60
2022/09/24 09:48:12;;;;;;;7.68;7.07;;;;;;;;;;5005959;28;94956;-60
2022/09/24 09:50:50;;;;;;;7.45;6.90;;;;;;;;;;5003452;28;95533;-60
2022/09/24 09:53:20;;;;;;;8.00;7.30;;;;;;;;;;5028617;28;93317;-60
2022/09/24 09:55:51;;;;;;;7.55;6.88;;;;;;;;;;5004395;28;92511;-61
2022/09/24 09:58:20;;;;;;;8.40;7.63;;;;;;;;;;5028383;28;92496;-61
2022/09/24 10:00:48;;;;;;;7.53;6.82;;;;;;;;;;5010747;27;94179;-61
2022/09/24 10:03:26;;;;;;;7.53;6.93;;;;;;;;;;5003413;28;92604;-61
2022/09/24 10:06:00;;;;;;;8.40;7.63;;;;;;;;;;5002026;28;92923;-61
2022/09/24 10:08:26;;;;;;;8.27;7.50;;;;;;;;;;5001190;28;93447;-60
2022/09/24 10:10:57;;;;;;;8.57;7.97;;;;;;;;;;5006172;28;93208;-60
2022/09/24 10:13:24;;;;;;;9.23;7.93;;;;;;;;;;5007375;27;95856;-60
2022/09/24 10:15:58;;;;;;;7.68;7.15;;;;;;;;;;5014297;28;92414;-61
2022/09/24 10:18:32;;;;;;;10.95;7.63;;;;;;;;;;5004539;28;93704;-60
2022/09/24 10:21:01;;;;;;;8.60;7.82;;;;;;;;;;4994081;28;93944;-60
2022/09/24 10:23:38;;;;;;;7.70;7.13;;;;;;;;;;5007632;28;93354;-60
2022/09/24 10:26:05;;;;;;;7.70;7.00;;;;;;;;;;4994427;28;94155;-60
2022/09/24 10:31:22;;;;;;;7.60;7.00;;;;;;;;;;4996160;28;93266;-60
2022/09/24 10:33:52;;;;;;;8.35;6.80;;;;;;;;;;5004035;28;94812;-60
2022/09/24 10:36:21;;;;;;;7.15;6.63;;;;;;;;;;5005652;28;92420;-60
2022/09/24 10:38:48;;;;;;;7.22;6.68;;;;;;;;;;4996502;28;96988;-60
2022/09/24 10:41:14;;;;;;;7.57;6.75;;;;;;;;;;4993454;28;93534;-60
2022/09/24 10:43:49;;;;;;;16.52;7.50;;;;;;;;;;4994815;28;93196;-60
2022/09/24 10:46:21;;;;;;;7.10;6.30;;;;;;;;;;4998502;28;92507;-60
2022/09/24 10:49:20;;;;;;;6.93;6.18;;;;;;;;;;5013490;28;93260;-60
2022/09/24 10:51:46;;;;;;;6.75;6.25;;;;;;;;;;4980257;28;93406;-60
2022/09/24 10:54:35;;;;;;;7.22;6.63;;;;;;;;;;4991215;28;94959;-60
2022/09/24 10:57:10;;;;;;;6.97;5.80;;;;;;;;;;5007154;28;93331;-60
2022/09/24 10:59:51;;;;;;;6.40;5.90;;;;;;;;;;4997812;28;94726;-60
2022/09/24 11:02:18;;;;;;;6.25;5.85;;;;;;;;;;5013702;28;93922;-60
2022/09/24 11:04:55;;;;;;;6.60;5.93;;;;;;;;;;5008887;28;94852;-61
2022/09/24 11:07:27;;;;;;;5.32;5.03;;;;;;;;;;5013554;28;96724;-59
2022/09/24 11:09:59;;;;;;;6.10;5.53;;;;;;;;;;5011458;27;94288;-60
2022/09/24 11:12:26;;;;;;;;;;;;;;;;;;4998320;28;93409;-60
2022/09/24 11:15:10;;;;;;;5.80;5.30;;;;;;;;;;5011500;28;115173;-60
2022/09/24 11:17:48;;;;;;;5.93;5.43;;;;;;;;;;4995762;28;92352;-60
2022/09/24 11:20:34;;;;;;;5.95;5.45;;;;;;;;;;5003996;28;93318;-60
2022/09/24 11:23:07;;;;;;;5.55;5.05;;;;;;;;;;5016054;28;92694;-62
2022/09/24 11:25:46;;;;;;;9.07;5.40;;;;;;;;;;5017100;28;92531;-67
2022/09/24 11:28:18;;;;;;;5.30;4.82;;;;;;;;;;5016650;28;93082;-61
2022/09/24 11:31:03;;;;;;;6.20;4.60;;;;;;;;;;5014125;28;95984;-61
2022/09/24 11:33:48;;;;;;;5.68;5.18;;;;;;;;;;5016804;28;92433;-61
2022/09/24 11:36:33;;;;;;;5.47;5.07;;;;;;;;;;5015041;28;93132;-63
2022/09/24 11:39:09;;;;;;;7.60;4.70;;;;;;;;;;5018861;28;93962;-66
2022/09/24 11:41:38;;;;;;;5.00;4.50;;;;;;;;;;5014127;28;93083;-68
2022/09/24 11:44:04;;;;;;;5.05;4.53;;;;;;;;;;5012552;28;93351;-61
2022/09/24 11:46:46;;;;;;;4.72;4.18;;;;;;;;;;4997678;28;93712;-63
2022/09/24 11:49:36;;;;;;;4.88;3.92;;;;;;;;;;4997113;28;93250;-60
2022/09/24 11:52:07;;;;;;;5.75;4.32;;;;;;;;;;5014288;28;93695;-61
2022/09/24 11:54:42;;;;;;;4.47;4.00;;;;;;;;;;5016468;28;92485;-60
2022/09/24 11:57:15;;;;;;;3.97;3.65;;;;;;;;;;5014792;28;94672;-60
2022/09/24 11:59:41;;;;;;;;;;;;;;;;;;5015625;28;93228;-60
2022/09/24 12:02:26;;;;;;;4.78;3.22;;;;;;;;;;5011447;28;106886;-60
2022/09/24 12:04:56;;;;;;;3.30;3.03;;;;;;;;;;5010939;28;93278;-60
2022/09/24 12:07:29;;;;;;;5.13;3.90;;;;;;;;;;5013228;28;92449;-60
2022/09/24 12:10:15;;;;;;;5.70;3.25;;;;;;;;;;5006297;28;94109;-60
2022/09/24 12:12:42;;;;;;;4.43;3.03;;;;;;;;;;4996850;28;93498;-60
2022/09/24 12:15:23;;;;;;;3.80;3.20;;;;;;;;;;5009741;28;91795;-60
2022/09/24 12:18:05;;;;;;;4.38;3.10;;;;;;;;;;5014315;28;92384;-60
2022/09/24 12:20:38;;;;;;;3.58;3.28;;;;;;;;;;4994744;28;93304;-60
2022/09/24 12:23:10;;;;;;;4.68;2.95;;;;;;;;;;4993114;28;94840;-60
2022/09/24 12:25:39;;;;;;;2.92;2.72;;;;;;;;;;4999073;28;94188;-59
2022/09/24 12:28:09;;;;;;;3.20;2.90;;;;;;;;;;4995584;28;92506;-60
2022/09/24 12:33:30;;;;;;;5.45;3.58;;;;;;;;;;4994518;28;93279;-61
2022/09/24 12:36:15;;;;;;;3.22;2.92;;;;;;;;;;4995669;28;92445;-61
2022/09/24 12:38:44;;;;;;;2.85;2.63;;;;;;;;;;4997458;28;93655;-61
2022/09/24 12:41:16;;;;;;;8.02;3.05;;;;;;;;;;4994864;28;91693;-61
2022/09/24 12:43:43;;;;;;;3.17;2.70;;;;;;;;;;5010009;28;93497;-61
2022/09/24 12:46:18;;;;;;;4.20;2.85;;;;;;;;;;4997850;28;94965;-61
2022/09/24 12:48:45;;;;;;;3.17;2.97;;;;;;;;;;4994702;28;95146;-61
2022/09/24 12:51:13;;;;;;;4.13;3.05;;;;;;;;;;4995614;28;95515;-61
2022/09/24 12:53:41;;;;;;;3.90;3.17;;;;;;;;;;5012367;28;93443;-61
2022/09/24 12:56:09;;;;;;;2.78;2.58;;;;;;;;;;5006693;28;92583;-61
2022/09/24 12:58:37;;;;;;;2.83;2.42;;;;;;;;;;5002462;28;92568;-61
2022/09/24 13:01:23;;;;;;;3.97;2.97;;;;;;;;;;4993513;28;93387;-61
2022/09/24 13:04:09;;;;;;;2.78;2.40;;;;;;;;;;4995530;28;93162;-60
2022/09/24 13:06:36;;;;;;;2.72;2.50;;;;;;;;;;4996268;28;91648;-60
2022/09/24 13:09:22;;;;;;;2.45;2.20;;;;;;;;;;4997671;28;93366;-60
2022/09/24 13:12:01;;;;;;;4.15;2.60;;;;;;;;;;5011357;28;93410;-60
2022/09/24 13:14:30;;;;;;;2.67;2.40;;;;;;;;;;5011534;28;95768;-60
2022/09/24 13:16:56;;;;;;;2.45;2.25;;;;;;;;;;4996342;28;92529;-60
2022/09/24 13:19:24;;;;;;;2.60;2.40;;;;;;;;;;5002497;28;93297;-63
2022/09/24 13:21:54;;;;;;;5.95;2.60;;;;;;;;;;5013952;28;92544;-60
2022/09/24 13:24:28;;;;;;;2.85;2.10;;;;;;;;;;5016156;28;92484;-60
2022/09/24 13:27:06;;;;;;;3.28;2.95;;;;;;;;;;5035209;27;92405;-60
2022/09/24 13:29:37;;;;;;;2.47;2.28;;;;;;;;;;5033974;27;93357;-60
2022/09/24 13:32:03;;;;;;;4.10;2.40;;;;;;;;;;5019844;27;91687;-60
2022/09/24 13:34:31;;;;;;;2.50;2.30;;;;;;;;;;4997224;28;93565;-62
2022/09/24 13:37:09;;;;;;;9.07;2.65;;;;;;;;;;5011080;28;92732;-60
2022/09/24 13:39:41;;;;;;;3.95;2.20;;;;;;;;;;5013614;28;94943;-60
2022/09/24 13:42:24;;;;;;;8.68;2.13;;;;;;;;;;5014494;28;93416;-61
2022/09/24 13:44:52;;;;;;;6.38;2.75;;;;;;;;;;5014093;28;92423;-62
2022/09/24 13:47:28;;;;;;;5.70;2.50;;;;;;;;;;5003288;28;93133;-60
2022/09/24 13:49:58;;;;;;;2.33;2.13;;;;;;;;;;4994519;28;93402;-60
2022/09/24 13:52:27;;;;;;;4.40;1.80;;;;;;;;;;4994043;28;92480;-60
2022/09/24 13:54:55;;;;;;;1.75;1.65;;;;;;;;;;4997662;28;94095;-60
2022/09/24 13:57:23;;;;;;;3.03;2.17;;;;;;;;;;4993930;28;91787;-60
2022/09/24 14:00:00;;;;;;;3.22;2.83;;;;;;;;;;4994042;28;92488;-60
2022/09/24 14:02:32;;;;;;;3.63;2.08;;;;;;;;;;4996115;28;92830;-60
2022/09/24 14:05:00;;;;;;;3.00;2.20;;;;;;;;;;5011935;28;94841;-61
2022/09/24 14:07:27;;;;;;;2.22;1.85;;;;;;;;;;5013969;28;95560;-60
2022/09/24 14:10:05;;;;;;;3.90;2.67;;;;;;;;;;5013748;28;93271;-60
2022/09/24 14:12:32;;;;;;;6.13;2.08;;;;;;;;;;5013563;28;92535;-60
2022/09/24 14:14:58;;;;;;;5.18;2.15;;;;;;;;;;5013754;28;93063;-60
2022/09/24 14:17:25;;;;;;;4.63;1.75;;;;;;;;;;5004712;28;93422;-60
2022/09/24 14:19:55;;;;;;;7.20;2.58;;;;;;;;;;4993626;28;93036;-60
2022/09/24 14:22:21;;;;;;;5.13;2.10;;;;;;;;;;4997544;28;92553;-60
2022/09/24 14:24:48;;;;;;;2.85;2.10;;;;;;;;;;5007012;28;93846;-60
2022/09/24 14:27:18;;;;;;;2.92;2.03;;;;;;;;;;5004092;28;93691;-60
2022/09/24 14:29:47;;;;;;;3.90;2.20;;;;;;;;;;5011057;28;96930;-60
2022/09/24 14:32:23;;;;;;;6.93;2.25;;;;;;;;;;5010084;28;92502;-60
2022/09/24 14:34:54;;;;;;;4.72;2.00;;;;;;;;;;5015895;28;93839;-60
2022/09/24 14:37:23;;;;;;;2.72;1.95;;;;;;;;;;5015069;28;93696;-59
2022/09/24 14:39:55;;;;;;;2.05;1.85;;;;;;;;;;5016406;28;93397;-59
2022/09/24 14:42:27;;;;;;;3.95;1.90;;;;;;;;;;5002567;28;93822;-60
2022/09/24 14:44:54;;;;;;;2.53;2.33;;;;;;;;;;4995854;28;92486;-60
2022/09/24 14:47:31;;;;;;;3.47;1.70;;;;;;;;;;4996188;28;93009;-60
2022/09/24 14:49:58;;;;;;;1.80;1.60;;;;;;;;;;4997025;28;93564;-60
2022/09/24 14:52:27;;;;;;;1.77;1.67;;;;;;;;;;5001874;28;93262;-60
2022/09/24 14:55:00;;;;;;;5.78;2.22;;;;;;;;;;5001146;28;95019;-60
2022/09/24 14:57:26;;;;;;;3.10;2.00;;;;;;;;;;4999979;28;93206;-60
2022/09/24 14:59:53;;;;;;;3.92;2.10;;;;;;;;;;4999828;28;92508;-60
2022/09/24 15:02:32;;;;;;;3.03;1.70;;;;;;;;;;4996496;28;94064;-61
2022/09/24 15:05:03;;;;;;;6.93;2.38;;;;;;;;;;4997124;28;92458;-60
2022/09/24 15:07:32;;;;;;;2.13;1.88;;;;;;;;;;4997161;28;92520;-60